createdAt,value
2019-01-20T00:03:01.725Z,100269.14
2019-01-20T00:08:03.914Z,100253.94
2019-01-20T00:13:06.500Z,100252.66
2019-01-20T00:18:08.713Z,100257.41
2019-01-20T00:23:10.944Z,100256.95
2019-01-20T00:28:13.369Z,100256.09
2019-01-20T00:33:15.436Z,100254.84
2019-01-20T00:38:19.498Z,100255.30
2019-01-20T00:43:21.822Z,100251.39
2019-01-20T00:48:24.437Z,100249.66
2019-01-20T00:53:26.548Z,100254.91
2019-01-20T00:58:28.626Z,100250.50
2019-01-20T01:03:30.956Z,100248.36
2019-01-20T01:08:33.215Z,100252.30
2019-01-20T01:13:35.595Z,100258.36
2019-01-20T01:18:37.640Z,100247.49
2019-01-20T01:23:39.694Z,100247.08
2019-01-20T01:28:41.770Z,100264.06
2019-01-20T01:33:43.965Z,100261.41
2019-01-20T01:38:46.013Z,100272.27
2019-01-20T01:43:48.461Z,100266.65
2019-01-20T01:48:50.630Z,100273.14
2019-01-20T01:53:53.069Z,100274.94
2019-01-20T01:58:55.084Z,100272.30
2019-01-20T02:03:57.290Z,100270.98
2019-01-20T02:08:59.589Z,100278.39
2019-01-20T02:14:01.747Z,100270.13
2019-01-20T02:19:03.945Z,100269.27
2019-01-20T02:24:06.045Z,100274.48
2019-01-20T02:29:08.154Z,100274.05
2019-01-20T02:34:10.241Z,100281.00
2019-01-20T02:39:12.265Z,100272.31
2019-01-20T02:44:14.295Z,100273.20
2019-01-20T02:49:16.356Z,100267.96
2019-01-20T02:54:18.937Z,100277.51
2019-01-20T02:59:20.924Z,100274.48
2019-01-20T03:04:23.405Z,100266.25
2019-01-20T03:09:25.416Z,100268.44
2019-01-20T03:14:27.472Z,100262.78
2019-01-20T03:19:29.855Z,100264.50
2019-01-20T03:24:31.854Z,100263.68
2019-01-20T03:29:34.027Z,100247.59
2019-01-20T03:34:36.035Z,100252.82
2019-01-20T03:39:38.113Z,100247.59
2019-01-20T03:44:40.156Z,100249.77
2019-01-20T03:49:42.306Z,100248.47
2019-01-20T03:54:44.334Z,100247.16
2019-01-20T03:59:46.454Z,100242.41
2019-01-20T04:04:48.592Z,100247.16
2019-01-20T04:09:51.050Z,100244.56
2019-01-20T04:14:53.242Z,100252.39
2019-01-20T04:19:55.361Z,100256.73
2019-01-20T04:24:57.412Z,100258.02
2019-01-20T04:29:59.492Z,100254.13
2019-01-20T04:35:01.993Z,100260.64
2019-01-20T04:40:06.345Z,100255.85
2019-01-20T04:45:09.673Z,100258.46
2019-01-20T04:50:13.900Z,100258.02
2019-01-20T04:55:16.346Z,100260.62
2019-01-20T05:00:20.381Z,100263.69
2019-01-20T05:05:22.552Z,100270.63
2019-01-20T05:10:24.674Z,100263.23
2019-01-20T05:15:26.867Z,100266.28
2019-01-20T05:20:29.176Z,100264.96
2019-01-20T05:25:31.203Z,100264.09
2019-01-20T05:30:33.293Z,100266.69
2019-01-20T05:35:35.284Z,100264.96
2019-01-20T05:40:37.305Z,100267.11
2019-01-20T05:45:39.370Z,100269.73
2019-01-20T05:50:41.437Z,100266.69
2019-01-20T05:55:43.487Z,100261.91
2019-01-20T06:00:45.526Z,100271.02
2019-01-20T06:05:48.023Z,100270.61
2019-01-20T06:10:50.165Z,100279.26
2019-01-20T06:15:52.224Z,100284.05
2019-01-20T06:20:54.283Z,100288.39
2019-01-20T06:25:56.336Z,100287.93
2019-01-20T06:30:58.535Z,100293.12
2019-01-20T06:36:00.763Z,100294.83
2019-01-20T06:41:02.871Z,100296.98
2019-01-20T06:46:04.903Z,100296.11
2019-01-20T06:51:06.954Z,100305.63
2019-01-20T06:56:08.989Z,100305.23
2019-01-20T07:01:11.135Z,100309.13
2019-01-20T07:06:13.243Z,100321.23
2019-01-20T07:11:15.324Z,100325.58
2019-01-20T07:16:17.426Z,100334.23
2019-01-20T07:21:19.610Z,100331.65
2019-01-20T07:26:21.701Z,100332.55
2019-01-20T07:31:23.725Z,100345.05
2019-01-20T07:36:25.792Z,100342.44
2019-01-20T07:41:27.845Z,100358.13
2019-01-20T07:51:40.918Z,100370.69
2019-01-20T07:56:43.562Z,100381.94
2019-01-20T08:01:45.643Z,100386.28
2019-01-20T08:06:47.738Z,100392.77
2019-01-20T08:11:49.801Z,100385.89
2019-01-20T08:16:51.947Z,100401.56
2019-01-20T08:21:54.080Z,100395.91
2019-01-20T08:26:56.153Z,100402.94
2019-01-20T08:31:58.207Z,100413.75
2019-01-20T08:37:00.635Z,100412.44
2019-01-20T08:42:02.839Z,100429.36
2019-01-20T08:47:27.857Z,100432.48
2019-01-20T08:52:29.919Z,100440.31
2019-01-20T08:57:31.981Z,100442.03
2019-01-20T09:02:34.198Z,100449.45
2019-01-20T09:07:36.353Z,100449.45
2019-01-20T09:17:49.084Z,100463.38
2019-01-20T09:22:51.163Z,100462.97
2019-01-20T09:27:53.197Z,100469.50
2019-01-20T09:32:55.196Z,100472.55
2019-01-20T09:37:57.256Z,100477.77
2019-01-20T09:42:59.545Z,100482.54
2019-01-20T09:48:01.507Z,100481.70
2019-01-20T09:53:03.595Z,100490.39
2019-01-20T09:58:05.832Z,100493.42
2019-01-20T10:03:08.083Z,100496.48
2019-01-20T10:08:10.281Z,100498.64
2019-01-20T10:13:12.501Z,100502.10
2019-01-20T10:18:14.825Z,100499.52
2019-01-20T10:23:16.906Z,100506.03
2019-01-20T10:28:21.928Z,100500.38
2019-01-20T10:33:24.095Z,100513.39
2019-01-20T10:38:26.124Z,100497.32
2019-01-20T10:43:28.182Z,100495.11
2019-01-20T10:48:30.377Z,100489.03
2019-01-20T10:53:32.551Z,100495.93
2019-01-20T10:58:34.812Z,100491.13
2019-01-20T11:03:36.894Z,100496.30
2019-01-20T11:08:38.960Z,100503.66
2019-01-20T11:13:41.375Z,100507.59
2019-01-20T11:18:43.374Z,100501.03
2019-01-20T11:23:45.746Z,100501.42
2019-01-20T11:28:48.122Z,100502.27
2019-01-20T11:33:50.175Z,100495.23
2019-01-20T11:38:52.272Z,100495.63
2019-01-20T11:43:54.365Z,100503.48
2019-01-20T11:48:56.547Z,100499.97
2019-01-20T11:53:58.641Z,100502.05
2019-01-20T11:59:00.711Z,100493.31
2019-01-20T12:09:32.363Z,100490.19
2019-01-20T12:14:34.716Z,100491.31
2019-01-20T12:19:36.982Z,100496.02
2019-01-20T12:24:39.350Z,100490.45
2019-01-20T12:29:41.390Z,100491.63
2019-01-20T12:34:43.637Z,100490.37
2019-01-20T12:39:45.679Z,100489.05
2019-01-20T12:44:47.735Z,100492.47
2019-01-20T12:49:50.242Z,100497.75
2019-01-20T12:54:52.632Z,100491.57
2019-01-20T12:59:54.861Z,100498.92
2019-01-20T13:04:57.080Z,100490.45
2019-01-20T13:09:59.130Z,100490.49
2019-01-20T13:15:01.586Z,100490.50
2019-01-20T13:20:07.041Z,100485.22
2019-01-20T13:25:11.634Z,100481.73
2019-01-20T13:30:16.651Z,100480.84
2019-01-20T13:35:19.770Z,100478.53
2019-01-20T13:40:28.748Z,100478.91
2019-01-20T13:45:30.799Z,100472.70
2019-01-20T13:50:33.018Z,100481.50
2019-01-20T13:55:35.037Z,100484.66
2019-01-20T14:00:37.251Z,100483.68
2019-01-20T14:05:39.323Z,100481.33
2019-01-20T14:10:41.507Z,100479.16
2019-01-20T14:15:43.686Z,100481.25
2019-01-20T14:20:45.949Z,100479.41
2019-01-20T14:25:48.009Z,100493.46
2019-01-20T14:30:50.078Z,100501.22
2019-01-20T14:35:52.345Z,100491.58
2019-01-20T14:41:01.712Z,100503.91
2019-01-20T14:46:04.173Z,100502.87
2019-01-20T14:51:29.167Z,100501.32
2019-01-20T14:56:54.148Z,100511.94
2019-01-20T15:02:20.148Z,100512.89
2019-01-20T15:07:42.009Z,100501.14
2019-01-20T15:12:30.563Z,100505.50
2019-01-20T15:22:44.322Z,100518.80
2019-01-20T15:27:46.444Z,100521.42
2019-01-20T15:33:09.762Z,100527.84
2019-01-20T15:38:11.833Z,100523.66
2019-01-20T15:43:13.880Z,100530.26
2019-01-20T15:48:15.974Z,100529.52
2019-01-20T15:53:18.143Z,100533.89
2019-01-20T15:58:20.278Z,100535.30
2019-01-20T16:08:47.462Z,100544.53
2019-01-20T16:13:49.516Z,100549.40
2019-01-20T16:18:51.536Z,100559.52
2019-01-20T16:29:02.010Z,100571.69
2019-01-20T16:34:04.043Z,100575.63
2019-01-20T16:39:06.950Z,100584.40
2019-01-20T16:44:09.436Z,100593.63
2019-01-20T16:49:11.459Z,100597.10
2019-01-20T16:54:13.470Z,100608.44
2019-01-20T16:59:15.533Z,100609.31
2019-01-20T17:04:17.603Z,100607.45
2019-01-20T17:09:19.740Z,100615.83
2019-01-20T17:14:24.088Z,100621.53
2019-01-20T17:19:26.234Z,100627.21
2019-01-20T17:24:28.470Z,100631.55
2019-01-20T17:29:30.803Z,100638.98
2019-01-20T17:34:32.854Z,100649.91
2019-01-20T17:39:34.951Z,100659.48
2019-01-20T17:44:37.046Z,100662.98
2019-01-20T17:49:39.156Z,100666.03
2019-01-20T17:54:41.253Z,100669.54
2019-01-20T17:59:43.323Z,100669.54
2019-01-20T18:04:45.363Z,100680.00
2019-01-20T18:09:47.410Z,100679.56
2019-01-20T18:14:49.595Z,100689.57
2019-01-20T18:19:51.736Z,100695.66
2019-01-20T18:24:53.803Z,100702.66
2019-01-20T18:29:55.877Z,100710.05
2019-01-20T18:34:57.962Z,100718.74
2019-01-20T18:40:00.192Z,100716.13
2019-01-20T18:45:02.385Z,100733.98
2019-01-20T18:50:06.878Z,100733.10
2019-01-20T18:55:10.401Z,100731.37
2019-01-20T19:00:23.995Z,100740.49
2019-01-20T19:05:26.168Z,100740.06
2019-01-20T19:10:28.272Z,100747.92
2019-01-20T19:15:30.800Z,100749.20
2019-01-20T19:20:32.989Z,100756.17
2019-01-20T19:26:16.958Z,100760.98
2019-01-20T19:31:19.159Z,100770.96
2019-01-20T19:36:21.300Z,100787.52
2019-01-20T19:41:23.524Z,100784.48
2019-01-20T19:46:25.720Z,100799.67
2019-01-20T19:51:28.456Z,100788.81
2019-01-20T19:56:30.649Z,100794.02
2019-01-20T20:01:33.124Z,100803.16
2019-01-20T20:06:35.385Z,100802.23
2019-01-20T20:11:37.825Z,100807.45
2019-01-20T20:16:40.463Z,100805.25
2019-01-20T20:21:43.165Z,100823.14
2019-01-20T20:26:45.481Z,100820.06
2019-01-20T20:31:47.990Z,100825.77
2019-01-20T20:36:50.531Z,100830.45
2019-01-20T20:41:52.764Z,100841.33
2019-01-20T20:46:55.214Z,100830.50
2019-01-20T20:51:57.381Z,100835.66
2019-01-20T20:56:59.532Z,100833.48
2019-01-20T21:02:03.705Z,100841.28
2019-01-20T21:07:06.064Z,100850.42
2019-01-20T21:12:08.150Z,100853.44
2019-01-20T21:17:11.328Z,100858.62
2019-01-20T21:22:13.395Z,100862.48
2019-01-20T21:27:15.495Z,100871.59
2019-01-20T21:32:17.564Z,100875.56
2019-01-20T21:37:19.716Z,100877.20
2019-01-20T21:42:21.839Z,100882.02
2019-01-20T21:47:24.162Z,100891.55
2019-01-20T21:52:26.267Z,100898.94
2019-01-20T21:57:28.361Z,100907.16
2019-01-20T22:02:30.420Z,100904.45
2019-01-20T22:07:39.345Z,100906.15
2019-01-20T22:12:44.242Z,100911.80
2019-01-20T22:17:47.398Z,100920.05
2019-01-20T22:22:49.818Z,100915.63
2019-01-20T22:27:51.846Z,100914.80
2019-01-20T22:32:54.117Z,100919.62
2019-01-20T22:37:56.181Z,100934.39
2019-01-20T22:42:58.190Z,100940.81
2019-01-20T22:48:00.275Z,100950.81
2019-01-20T22:53:02.314Z,100963.41
2019-01-20T22:58:04.308Z,100960.41
2019-01-20T23:03:06.351Z,100965.10
2019-01-20T23:08:08.456Z,100964.31
2019-01-20T23:13:10.899Z,100966.84
2019-01-20T23:18:12.932Z,100971.13
2019-01-20T23:23:15.009Z,100977.54
2019-01-20T23:28:17.055Z,100980.53
2019-01-20T23:33:19.492Z,100982.33
2019-01-20T23:38:21.555Z,100990.47
2019-01-20T23:43:23.702Z,100993.56
2019-01-20T23:48:25.755Z,100994.80
2019-01-20T23:53:27.877Z,100996.45
2019-01-20T23:58:29.849Z,100998.66
